Aeroporto :
LOGIN :

Iscrizione | Disclaimer

   EN    FR    IT 

 










Sommario :    VFR   VFR Marginale   IFR   IFR Intensivo   IFR Molto Intensivo
Visibilità : 
Base nubi : 
>= 8 km
>= 3000ft
5 / 8 km
1000 / 3000 ft
1500m / 5 km
500 / 1000 ft
800 / 1500m
200 / 500 ft
< 800m
< 200 ft
Simboli :   Temporali  Nebbia  Neve Forte  Precipitazioni Forti  Vento > 20 kt
SIGMETs :   Varie  Temporali  Ghiacco  Turbolenza  Onda orograficha  Ceneri Vulcaniche






- Altitudine del aeroporto : 97 ft
- Codice IATA : EBJ


EKEB - Esbjerg

ULTIMO METAR :
  • 091620Z AUTO 01008KT 340V040 9999 NCD 27/18 Q1020

METARs OBSOLETI :
  • 091550Z AUTO 36008KT 330V030 9999 NCD 28/17 Q1020
  • 091520Z AUTO 34009KT 9999 NCD 27/17 Q1020
  • 091450Z AUTO 36005KT 320V050 9999 NCD 28/18 Q1020
  • 091420Z AUTO 36006KT 320V040 9999 FEW130/// 28/18 Q1020
  • 091350Z AUTO 02006KT 340V050 9999 FEW140/// 28/18 Q1020

TAF TAF EKEB
Valido dal 09 a 15 ore il 09 a 22 ore UTC


091405Z 0915/0922 02007KT CAVOK



MetMap, La meteo Aeronautica in un colpo d'occhio ! - Copyright ORBIFLY Dicembre 2007 - Disclaimer

ORBIFLY MET'MAP TEAM :

Programmazione e sviluppo : Alexandra Zaïnal
Concezione : Baudouin d'Aumeries
Aiuto per la programmazione : Marc-Olivier Méhu
Supporto tecnico e logistico : Manuel Goepfert
Aiuto per la traduzione : Arnaldo La Scala

Contatto : metmap@orbifly.com




FONTI E CREDITI :

   NOAA